sensor_id;sensor_type;location;lat;lon;timestamp;temperature;humidity
8684;DHT22;4379;59.744;18.206;2022-11-23T00:01:23;-0.60;99.90
8684;DHT22;4379;59.744;18.206;2022-11-23T00:03:54;-0.60;99.90
8684;DHT22;4379;59.744;18.206;2022-11-23T00:06:23;-0.50;99.90
8684;DHT22;4379;59.744;18.206;2022-11-23T00:08:51;-0.60;99.90
8684;DHT22;4379;59.744;18.206;2022-11-23T00:11:19;-0.60;99.90
8684;DHT22;4379;59.744;18.206;2022-11-23T00:13:47;-0.60;99.90
8684;DHT22;4379;59.744;18.206;2022-11-23T00:16:17;-0.70;99.90
8684;DHT22;4379;59.744;18.206;2022-11-23T00:18:45;-0.70;99.90
8684;DHT22;4379;59.744;18.206;2022-11-23T00:21:14;-0.80;99.90
8684;DHT22;4379;59.744;18.206;2022-11-23T00:23:43;-0.80;99.90
8684;DHT22;4379;59.744;18.206;2022-11-23T00:26:11;-0.80;99.90
8684;DHT22;4379;59.744;18.206;2022-11-23T00:28:39;-0.90;99.90
8684;DHT22;4379;59.744;18.206;2022-11-23T00:31:10;-0.90;99.90
8684;DHT22;4379;59.744;18.206;2022-11-23T00:33:38;-0.90;99.90
8684;DHT22;4379;59.744;18.206;2022-11-23T00:36:14;-1.00;99.90
8684;DHT22;4379;59.744;18.206;2022-11-23T00:38:43;-1.00;99.90
8684;DHT22;4379;59.744;18.206;2022-11-23T00:41:16;-1.10;99.90
8684;DHT22;4379;59.744;18.206;2022-11-23T00:43:43;-1.10;99.90
8684;DHT22;4379;59.744;18.206;2022-11-23T00:46:21;-1.10;99.90
8684;DHT22;4379;59.744;18.206;2022-11-23T00:48:50;-1.20;99.90
8684;DHT22;4379;59.744;18.206;2022-11-23T00:51:20;-1.10;99.90
8684;DHT22;4379;59.744;18.206;2022-11-23T00:53:49;-1.10;99.90
8684;DHT22;4379;59.744;18.206;2022-11-23T00:56:17;-1.20;99.90
8684;DHT22;4379;59.744;18.206;2022-11-23T00:58:49;-1.20;99.90
8684;DHT22;4379;59.744;18.206;2022-11-23T01:01:18;-1.10;99.90
8684;DHT22;4379;59.744;18.206;2022-11-23T01:03:48;-1.00;99.90
8684;DHT22;4379;59.744;18.206;2022-11-23T01:06:30;-1.00;99.90
8684;DHT22;4379;59.744;18.206;2022-11-23T01:09:02;-1.00;99.90
8684;DHT22;4379;59.744;18.206;2022-11-23T01:11:31;-1.00;99.90
8684;DHT22;4379;59.744;18.206;2022-11-23T01:13:58;-0.90;99.90
8684;DHT22;4379;59.744;18.206;2022-11-23T01:16:31;-1.00;99.90
8684;DHT22;4379;59.744;18.206;2022-11-23T01:19:00;-1.00;99.90
8684;DHT22;4379;59.744;18.206;2022-11-23T01:21:29;-1.10;99.90
8684;DHT22;4379;59.744;18.206;2022-11-23T01:23:56;-1.10;99.90
8684;DHT22;4379;59.744;18.206;2022-11-23T01:26:24;-1.20;99.90
8684;DHT22;4379;59.744;18.206;2022-11-23T01:28:52;-1.10;99.90
8684;DHT22;4379;59.744;18.206;2022-11-23T01:31:21;-1.10;99.90
8684;DHT22;4379;59.744;18.206;2022-11-23T01:33:53;-1.10;99.90
8684;DHT22;4379;59.744;18.206;2022-11-23T01:36:23;-1.10;99.90
8684;DHT22;4379;59.744;18.206;2022-11-23T01:38:50;-1.10;99.90
8684;DHT22;4379;59.744;18.206;2022-11-23T01:41:24;-1.10;99.90
8684;DHT22;4379;59.744;18.206;2022-11-23T01:43:52;-1.00;99.90
8684;DHT22;4379;59.744;18.206;2022-11-23T01:46:20;-0.90;99.90
8684;DHT22;4379;59.744;18.206;2022-11-23T01:48:57;-0.90;99.90
8684;DHT22;4379;59.744;18.206;2022-11-23T01:51:36;-0.80;99.90
8684;DHT22;4379;59.744;18.206;2022-11-23T01:54:09;-0.80;99.90
8684;DHT22;4379;59.744;18.206;2022-11-23T01:56:49;-0.80;99.90
8684;DHT22;4379;59.744;18.206;2022-11-23T01:59:21;-0.80;99.90
8684;DHT22;4379;59.744;18.206;2022-11-23T02:01:49;-0.80;99.90
8684;DHT22;4379;59.744;18.206;2022-11-23T02:04:22;-0.80;99.90
8684;DHT22;4379;59.744;18.206;2022-11-23T02:06:51;-0.70;99.90
8684;DHT22;4379;59.744;18.206;2022-11-23T02:09:19;-0.70;99.90
8684;DHT22;4379;59.744;18.206;2022-11-23T02:11:47;-0.70;99.90
8684;DHT22;4379;59.744;18.206;2022-11-23T02:14:15;-0.70;99.90
8684;DHT22;4379;59.744;18.206;2022-11-23T02:16:49;-0.60;99.90
8684;DHT22;4379;59.744;18.206;2022-11-23T02:19:54;-0.60;99.90
8684;DHT22;4379;59.744;18.206;2022-11-23T02:25:24;-0.60;99.90
8684;DHT22;4379;59.744;18.206;2022-11-23T02:27:53;-0.50;99.90
8684;DHT22;4379;59.744;18.206;2022-11-23T02:30:20;-0.50;99.90
8684;DHT22;4379;59.744;18.206;2022-11-23T02:32:48;-0.50;99.90
8684;DHT22;4379;59.744;18.206;2022-11-23T02:35:15;-0.40;99.90
8684;DHT22;4379;59.744;18.206;2022-11-23T02:37:43;-0.30;99.90
8684;DHT22;4379;59.744;18.206;2022-11-23T02:40:32;-0.30;99.90
8684;DHT22;4379;59.744;18.206;2022-11-23T02:43:01;-0.20;99.90
8684;DHT22;4379;59.744;18.206;2022-11-23T02:45:56;-0.30;99.90
8684;DHT22;4379;59.744;18.206;2022-11-23T02:48:25;-0.20;99.90
8684;DHT22;4379;59.744;18.206;2022-11-23T02:50:52;-0.10;99.90
8684;DHT22;4379;59.744;18.206;2022-11-23T02:53:20;-0.10;99.90
8684;DHT22;4379;59.744;18.206;2022-11-23T02:55:47;-0.10;99.90
8684;DHT22;4379;59.744;18.206;2022-11-23T02:58:15;0.00;99.90
8684;DHT22;4379;59.744;18.206;2022-11-23T03:00:42;0.00;99.90
8684;DHT22;4379;59.744;18.206;2022-11-23T03:03:09;0.10;99.90
8684;DHT22;4379;59.744;18.206;2022-11-23T03:05:36;0.20;99.90
8684;DHT22;4379;59.744;18.206;2022-11-23T03:08:04;0.30;99.90
8684;DHT22;4379;59.744;18.206;2022-11-23T03:10:31;0.30;99.90
8684;DHT22;4379;59.744;18.206;2022-11-23T03:12:58;0.20;99.90
8684;DHT22;4379;59.744;18.206;2022-11-23T03:15:26;0.30;99.90
8684;DHT22;4379;59.744;18.206;2022-11-23T03:17:56;0.30;99.90
8684;DHT22;4379;59.744;18.206;2022-11-23T03:20:23;0.30;99.90
8684;DHT22;4379;59.744;18.206;2022-11-23T03:22:51;0.30;99.90
8684;DHT22;4379;59.744;18.206;2022-11-23T03:25:18;0.30;99.90
8684;DHT22;4379;59.744;18.206;2022-11-23T03:27:45;0.40;99.90
8684;DHT22;4379;59.744;18.206;2022-11-23T03:30:13;0.40;99.90
8684;DHT22;4379;59.744;18.206;2022-11-23T03:32:40;0.30;99.90
8684;DHT22;4379;59.744;18.206;2022-11-23T03:35:08;0.30;99.90
8684;DHT22;4379;59.744;18.206;2022-11-23T03:37:35;0.20;99.90
8684;DHT22;4379;59.744;18.206;2022-11-23T03:40:03;0.20;99.90
8684;DHT22;4379;59.744;18.206;2022-11-23T03:42:30;0.10;99.90
8684;DHT22;4379;59.744;18.206;2022-11-23T03:44:57;0.10;99.90
8684;DHT22;4379;59.744;18.206;2022-11-23T03:47:25;0.00;99.90
8684;DHT22;4379;59.744;18.206;2022-11-23T03:49:52;0.00;99.90
8684;DHT22;4379;59.744;18.206;2022-11-23T03:52:19;0.00;99.90
8684;DHT22;4379;59.744;18.206;2022-11-23T03:54:47;0.00;99.90
8684;DHT22;4379;59.744;18.206;2022-11-23T03:57:14;-0.20;99.90
8684;DHT22;4379;59.744;18.206;2022-11-23T03:59:41;-0.10;99.90
8684;DHT22;4379;59.744;18.206;2022-11-23T04:02:09;-0.10;99.90
8684;DHT22;4379;59.744;18.206;2022-11-23T04:04:36;-0.10;99.90
8684;DHT22;4379;59.744;18.206;2022-11-23T04:07:04;-0.10;99.90
8684;DHT22;4379;59.744;18.206;2022-11-23T04:09:31;-0.10;99.90
8684;DHT22;4379;59.744;18.206;2022-11-23T04:11:59;-0.10;99.90
8684;DHT22;4379;59.744;18.206;2022-11-23T04:14:26;-0.20;99.90
8684;DHT22;4379;59.744;18.206;2022-11-23T04:16:53;-0.10;99.90
8684;DHT22;4379;59.744;18.206;2022-11-23T04:19:20;0.00;99.90
8684;DHT22;4379;59.744;18.206;2022-11-23T04:21:48;0.00;99.90
8684;DHT22;4379;59.744;18.206;2022-11-23T04:24:15;0.00;99.90
8684;DHT22;4379;59.744;18.206;2022-11-23T04:26:42;0.10;99.90
8684;DHT22;4379;59.744;18.206;2022-11-23T04:29:10;0.10;99.90
8684;DHT22;4379;59.744;18.206;2022-11-23T04:31:37;0.20;99.90
8684;DHT22;4379;59.744;18.206;2022-11-23T04:34:04;0.20;99.90
8684;DHT22;4379;59.744;18.206;2022-11-23T04:36:32;0.20;99.90
8684;DHT22;4379;59.744;18.206;2022-11-23T04:38:59;0.20;99.90
8684;DHT22;4379;59.744;18.206;2022-11-23T04:41:26;0.10;99.90
8684;DHT22;4379;59.744;18.206;2022-11-23T04:43:53;0.10;99.90
8684;DHT22;4379;59.744;18.206;2022-11-23T04:46:21;0.00;99.90
8684;DHT22;4379;59.744;18.206;2022-11-23T04:48:48;0.00;99.90
8684;DHT22;4379;59.744;18.206;2022-11-23T04:51:15;0.00;99.90
8684;DHT22;4379;59.744;18.206;2022-11-23T04:53:43;0.00;99.90
8684;DHT22;4379;59.744;18.206;2022-11-23T04:56:10;0.10;99.90
8684;DHT22;4379;59.744;18.206;2022-11-23T04:58:37;0.10;99.90
8684;DHT22;4379;59.744;18.206;2022-11-23T05:01:05;0.10;99.90
8684;DHT22;4379;59.744;18.206;2022-11-23T05:03:33;0.30;99.90
8684;DHT22;4379;59.744;18.206;2022-11-23T05:06:04;0.30;99.90
8684;DHT22;4379;59.744;18.206;2022-11-23T05:08:31;0.30;99.90
8684;DHT22;4379;59.744;18.206;2022-11-23T05:10:58;0.30;99.90
8684;DHT22;4379;59.744;18.206;2022-11-23T05:13:25;0.20;99.90
8684;DHT22;4379;59.744;18.206;2022-11-23T05:15:53;0.30;99.90
8684;DHT22;4379;59.744;18.206;2022-11-23T05:18:20;0.30;99.90
8684;DHT22;4379;59.744;18.206;2022-11-23T05:20:47;0.30;99.90
8684;DHT22;4379;59.744;18.206;2022-11-23T05:23:14;0.30;99.90
8684;DHT22;4379;59.744;18.206;2022-11-23T05:25:42;0.30;99.90
8684;DHT22;4379;59.744;18.206;2022-11-23T05:28:16;0.30;99.90
8684;DHT22;4379;59.744;18.206;2022-11-23T05:31:04;0.30;99.90
8684;DHT22;4379;59.744;18.206;2022-11-23T05:33:31;0.40;99.90
8684;DHT22;4379;59.744;18.206;2022-11-23T05:35:58;0.40;99.90
8684;DHT22;4379;59.744;18.206;2022-11-23T05:38:25;0.30;99.90
8684;DHT22;4379;59.744;18.206;2022-11-23T05:40:53;0.30;99.90
8684;DHT22;4379;59.744;18.206;2022-11-23T05:43:20;0.30;99.90
8684;DHT22;4379;59.744;18.206;2022-11-23T05:45:48;0.40;99.90
8684;DHT22;4379;59.744;18.206;2022-11-23T05:48:15;0.40;99.90
8684;DHT22;4379;59.744;18.206;2022-11-23T05:50:43;0.30;99.90
8684;DHT22;4379;59.744;18.206;2022-11-23T05:53:10;0.20;99.90
8684;DHT22;4379;59.744;18.206;2022-11-23T05:55:37;0.20;99.90
8684;DHT22;4379;59.744;18.206;2022-11-23T05:58:05;0.30;99.90
8684;DHT22;4379;59.744;18.206;2022-11-23T06:00:32;0.30;99.90
8684;DHT22;4379;59.744;18.206;2022-11-23T06:03:00;0.30;99.90
8684;DHT22;4379;59.744;18.206;2022-11-23T06:05:28;0.20;99.90
8684;DHT22;4379;59.744;18.206;2022-11-23T06:07:55;0.10;99.90
8684;DHT22;4379;59.744;18.206;2022-11-23T06:10:23;0.10;99.90
8684;DHT22;4379;59.744;18.206;2022-11-23T06:12:50;0.10;99.90
8684;DHT22;4379;59.744;18.206;2022-11-23T06:15:19;0.10;99.90
8684;DHT22;4379;59.744;18.206;2022-11-23T06:17:46;0.10;99.90
8684;DHT22;4379;59.744;18.206;2022-11-23T06:20:13;0.00;99.90
8684;DHT22;4379;59.744;18.206;2022-11-23T06:22:41;0.00;99.90
8684;DHT22;4379;59.744;18.206;2022-11-23T06:25:08;-0.10;99.90
8684;DHT22;4379;59.744;18.206;2022-11-23T06:27:35;-0.20;99.90
8684;DHT22;4379;59.744;18.206;2022-11-23T06:30:03;-0.20;99.90
8684;DHT22;4379;59.744;18.206;2022-11-23T06:32:30;-0.20;99.90
8684;DHT22;4379;59.744;18.206;2022-11-23T06:34:58;-0.20;99.90
8684;DHT22;4379;59.744;18.206;2022-11-23T06:37:27;-0.30;99.90
8684;DHT22;4379;59.744;18.206;2022-11-23T06:39:54;-0.30;99.90
8684;DHT22;4379;59.744;18.206;2022-11-23T06:42:21;-0.30;99.90
8684;DHT22;4379;59.744;18.206;2022-11-23T06:45:05;-0.40;99.90
8684;DHT22;4379;59.744;18.206;2022-11-23T06:47:33;-0.50;99.90
8684;DHT22;4379;59.744;18.206;2022-11-23T06:50:00;-0.50;99.90
8684;DHT22;4379;59.744;18.206;2022-11-23T06:52:27;-0.40;99.90
8684;DHT22;4379;59.744;18.206;2022-11-23T06:54:55;-0.40;99.90
8684;DHT22;4379;59.744;18.206;2022-11-23T06:57:22;-0.40;99.90
8684;DHT22;4379;59.744;18.206;2022-11-23T06:59:49;-0.40;99.90
8684;DHT22;4379;59.744;18.206;2022-11-23T07:02:17;-0.40;99.90
8684;DHT22;4379;59.744;18.206;2022-11-23T07:04:44;-0.40;99.90
8684;DHT22;4379;59.744;18.206;2022-11-23T07:07:11;-0.40;99.90
8684;DHT22;4379;59.744;18.206;2022-11-23T07:09:38;-0.40;99.90
8684;DHT22;4379;59.744;18.206;2022-11-23T07:12:06;-0.40;99.90
8684;DHT22;4379;59.744;18.206;2022-11-23T07:14:33;-0.40;99.90
8684;DHT22;4379;59.744;18.206;2022-11-23T07:17:00;-0.50;99.90
8684;DHT22;4379;59.744;18.206;2022-11-23T07:19:27;-0.60;99.90
8684;DHT22;4379;59.744;18.206;2022-11-23T07:21:55;-0.40;99.90
8684;DHT22;4379;59.744;18.206;2022-11-23T07:24:22;-0.40;99.90
8684;DHT22;4379;59.744;18.206;2022-11-23T07:26:50;-0.40;99.90
8684;DHT22;4379;59.744;18.206;2022-11-23T07:29:17;-0.40;99.90
8684;DHT22;4379;59.744;18.206;2022-11-23T07:31:44;-0.30;99.90
8684;DHT22;4379;59.744;18.206;2022-11-23T07:34:12;-0.30;99.90
8684;DHT22;4379;59.744;18.206;2022-11-23T07:36:39;-0.30;99.90
8684;DHT22;4379;59.744;18.206;2022-11-23T07:39:06;-0.40;99.90
8684;DHT22;4379;59.744;18.206;2022-11-23T07:41:33;-0.30;99.90
8684;DHT22;4379;59.744;18.206;2022-11-23T07:44:01;-0.20;99.90
8684;DHT22;4379;59.744;18.206;2022-11-23T07:46:28;-0.20;99.90
8684;DHT22;4379;59.744;18.206;2022-11-23T07:48:55;-0.20;99.90
8684;DHT22;4379;59.744;18.206;2022-11-23T07:51:28;-0.20;99.90
8684;DHT22;4379;59.744;18.206;2022-11-23T07:53:55;-0.10;99.90
8684;DHT22;4379;59.744;18.206;2022-11-23T07:56:23;-0.10;99.90
8684;DHT22;4379;59.744;18.206;2022-11-23T07:58:51;0.00;99.90
8684;DHT22;4379;59.744;18.206;2022-11-23T08:01:18;0.10;99.90
8684;DHT22;4379;59.744;18.206;2022-11-23T08:03:46;0.10;99.90
8684;DHT22;4379;59.744;18.206;2022-11-23T08:06:15;0.00;99.90
8684;DHT22;4379;59.744;18.206;2022-11-23T08:08:42;0.10;99.90
8684;DHT22;4379;59.744;18.206;2022-11-23T08:11:10;0.20;99.90
8684;DHT22;4379;59.744;18.206;2022-11-23T08:13:40;0.10;99.90
8684;DHT22;4379;59.744;18.206;2022-11-23T08:16:07;0.10;99.90
8684;DHT22;4379;59.744;18.206;2022-11-23T08:18:35;0.10;99.90
8684;DHT22;4379;59.744;18.206;2022-11-23T08:21:03;0.20;99.90
8684;DHT22;4379;59.744;18.206;2022-11-23T08:23:30;0.30;99.90
8684;DHT22;4379;59.744;18.206;2022-11-23T08:25:57;0.40;99.90
8684;DHT22;4379;59.744;18.206;2022-11-23T08:28:25;0.40;99.90
8684;DHT22;4379;59.744;18.206;2022-11-23T08:30:52;0.50;99.90
8684;DHT22;4379;59.744;18.206;2022-11-23T08:33:19;0.50;99.90
8684;DHT22;4379;59.744;18.206;2022-11-23T08:35:47;0.50;99.90
8684;DHT22;4379;59.744;18.206;2022-11-23T08:38:14;0.60;99.90
8684;DHT22;4379;59.744;18.206;2022-11-23T08:40:41;0.50;99.90
8684;DHT22;4379;59.744;18.206;2022-11-23T08:43:08;0.50;99.90
8684;DHT22;4379;59.744;18.206;2022-11-23T08:45:35;0.60;99.90
8684;DHT22;4379;59.744;18.206;2022-11-23T08:48:03;0.60;99.90
8684;DHT22;4379;59.744;18.206;2022-11-23T08:50:31;0.80;99.90
8684;DHT22;4379;59.744;18.206;2022-11-23T08:53:00;0.70;99.90
8684;DHT22;4379;59.744;18.206;2022-11-23T08:55:28;0.50;99.90
8684;DHT22;4379;59.744;18.206;2022-11-23T08:57:56;0.50;99.90
8684;DHT22;4379;59.744;18.206;2022-11-23T09:00:25;0.50;99.90
8684;DHT22;4379;59.744;18.206;2022-11-23T09:02:53;0.60;99.90
8684;DHT22;4379;59.744;18.206;2022-11-23T09:05:20;0.80;99.90
8684;DHT22;4379;59.744;18.206;2022-11-23T09:07:47;0.70;99.90
8684;DHT22;4379;59.744;18.206;2022-11-23T09:10:15;0.80;99.90
8684;DHT22;4379;59.744;18.206;2022-11-23T09:12:46;0.80;99.90
8684;DHT22;4379;59.744;18.206;2022-11-23T09:15:14;0.90;99.90
8684;DHT22;4379;59.744;18.206;2022-11-23T09:17:41;0.90;99.90
8684;DHT22;4379;59.744;18.206;2022-11-23T09:20:09;1.00;99.90
8684;DHT22;4379;59.744;18.206;2022-11-23T09:22:37;1.10;99.90
8684;DHT22;4379;59.744;18.206;2022-11-23T09:25:05;1.20;99.90
8684;DHT22;4379;59.744;18.206;2022-11-23T09:27:33;1.30;99.90
8684;DHT22;4379;59.744;18.206;2022-11-23T09:30:00;1.30;99.90
8684;DHT22;4379;59.744;18.206;2022-11-23T09:32:27;1.30;99.90
8684;DHT22;4379;59.744;18.206;2022-11-23T09:34:55;1.40;99.90
8684;DHT22;4379;59.744;18.206;2022-11-23T09:37:22;1.50;99.90
8684;DHT22;4379;59.744;18.206;2022-11-23T09:39:49;1.40;99.90
8684;DHT22;4379;59.744;18.206;2022-11-23T09:50:49;1.20;99.90
8684;DHT22;4379;59.744;18.206;2022-11-23T09:54:10;1.30;99.90
8684;DHT22;4379;59.744;18.206;2022-11-23T09:56:26;1.30;99.90
8684;DHT22;4379;59.744;18.206;2022-11-23T09:58:58;1.20;99.90
8684;DHT22;4379;59.744;18.206;2022-11-23T10:01:26;1.10;99.90
8684;DHT22;4379;59.744;18.206;2022-11-23T10:03:54;0.90;99.90
8684;DHT22;4379;59.744;18.206;2022-11-23T10:06:29;1.10;99.90
8684;DHT22;4379;59.744;18.206;2022-11-23T10:09:09;1.10;99.90
8684;DHT22;4379;59.744;18.206;2022-11-23T10:22:57;1.40;99.90
8684;DHT22;4379;59.744;18.206;2022-11-23T10:25:28;1.40;99.90
8684;DHT22;4379;59.744;18.206;2022-11-23T10:28:19;1.30;99.90
8684;DHT22;4379;59.744;18.206;2022-11-23T10:30:52;1.30;99.90
8684;DHT22;4379;59.744;18.206;2022-11-23T10:33:31;1.50;99.90
8684;DHT22;4379;59.744;18.206;2022-11-23T10:36:02;1.60;99.90
8684;DHT22;4379;59.744;18.206;2022-11-23T10:38:30;1.80;99.90
8684;DHT22;4379;59.744;18.206;2022-11-23T10:41:11;1.70;99.90
8684;DHT22;4379;59.744;18.206;2022-11-23T10:43:43;1.60;99.90
8684;DHT22;4379;59.744;18.206;2022-11-23T10:46:26;1.50;99.90
8684;DHT22;4379;59.744;18.206;2022-11-23T10:49:21;1.60;99.90
8684;DHT22;4379;59.744;18.206;2022-11-23T10:52:05;1.60;99.90
8684;DHT22;4379;59.744;18.206;2022-11-23T10:57:19;1.60;99.90
8684;DHT22;4379;59.744;18.206;2022-11-23T11:00:04;1.60;99.90
8684;DHT22;4379;59.744;18.206;2022-11-23T11:02:53;1.50;99.90
8684;DHT22;4379;59.744;18.206;2022-11-23T11:08:16;1.80;99.90
8684;DHT22;4379;59.744;18.206;2022-11-23T11:11:07;1.90;99.90
8684;DHT22;4379;59.744;18.206;2022-11-23T11:13:44;1.80;99.90
8684;DHT22;4379;59.744;18.206;2022-11-23T11:16:26;1.70;99.90
8684;DHT22;4379;59.744;18.206;2022-11-23T11:18:57;1.70;99.90
8684;DHT22;4379;59.744;18.206;2022-11-23T11:21:32;1.70;99.90
8684;DHT22;4379;59.744;18.206;2022-11-23T11:24:05;1.80;99.90
8684;DHT22;4379;59.744;18.206;2022-11-23T11:26:34;1.80;99.90
8684;DHT22;4379;59.744;18.206;2022-11-23T11:29:04;1.90;99.90
8684;DHT22;4379;59.744;18.206;2022-11-23T11:31:58;1.70;99.90
8684;DHT22;4379;59.744;18.206;2022-11-23T11:34:44;1.50;99.90
8684;DHT22;4379;59.744;18.206;2022-11-23T11:37:33;1.50;99.90
8684;DHT22;4379;59.744;18.206;2022-11-23T11:42:57;1.50;99.90
8684;DHT22;4379;59.744;18.206;2022-11-23T11:45:31;1.70;99.90
8684;DHT22;4379;59.744;18.206;2022-11-23T11:48:06;1.60;99.90
8684;DHT22;4379;59.744;18.206;2022-11-23T11:50:40;1.50;99.90
8684;DHT22;4379;59.744;18.206;2022-11-23T11:53:14;1.40;99.90
8684;DHT22;4379;59.744;18.206;2022-11-23T11:56:00;1.40;99.90
8684;DHT22;4379;59.744;18.206;2022-11-23T11:58:31;1.40;99.90
8684;DHT22;4379;59.744;18.206;2022-11-23T12:01:11;1.10;99.90
8684;DHT22;4379;59.744;18.206;2022-11-23T12:03:43;1.10;99.90
8684;DHT22;4379;59.744;18.206;2022-11-23T12:06:20;1.00;99.90
8684;DHT22;4379;59.744;18.206;2022-11-23T12:09:02;1.00;99.90
8684;DHT22;4379;59.744;18.206;2022-11-23T12:11:32;1.10;99.90
8684;DHT22;4379;59.744;18.206;2022-11-23T12:14:01;1.10;99.90
8684;DHT22;4379;59.744;18.206;2022-11-23T12:22:06;1.00;99.90
8684;DHT22;4379;59.744;18.206;2022-11-23T12:31:07;0.60;99.90
8684;DHT22;4379;59.744;18.206;2022-11-23T12:33:54;0.50;99.90
8684;DHT22;4379;59.744;18.206;2022-11-23T12:44:46;0.50;99.90
8684;DHT22;4379;59.744;18.206;2022-11-23T12:50:42;0.60;99.90
8684;DHT22;4379;59.744;18.206;2022-11-23T12:55:56;0.60;99.90
8684;DHT22;4379;59.744;18.206;2022-11-23T12:58:31;0.60;99.90
8684;DHT22;4379;59.744;18.206;2022-11-23T13:01:11;0.70;99.90
8684;DHT22;4379;59.744;18.206;2022-11-23T13:15:15;0.50;99.90
8684;DHT22;4379;59.744;18.206;2022-11-23T13:18:26;0.60;99.90
8684;DHT22;4379;59.744;18.206;2022-11-23T13:23:56;0.60;99.90
8684;DHT22;4379;59.744;18.206;2022-11-23T13:26:25;0.70;99.90
8684;DHT22;4379;59.744;18.206;2022-11-23T13:28:55;0.60;99.90
8684;DHT22;4379;59.744;18.206;2022-11-23T13:31:30;0.70;99.90
8684;DHT22;4379;59.744;18.206;2022-11-23T13:33:59;0.70;99.90
8684;DHT22;4379;59.744;18.206;2022-11-23T13:42:12;0.60;99.90
8684;DHT22;4379;59.744;18.206;2022-11-23T13:44:40;0.70;99.90
8684;DHT22;4379;59.744;18.206;2022-11-23T13:49:52;0.90;99.90
8684;DHT22;4379;59.744;18.206;2022-11-23T13:52:33;0.80;99.90
8684;DHT22;4379;59.744;18.206;2022-11-23T13:55:19;0.80;99.90
8684;DHT22;4379;59.744;18.206;2022-11-23T14:00:57;0.80;99.90
8684;DHT22;4379;59.744;18.206;2022-11-23T14:17:21;0.80;99.90
8684;DHT22;4379;59.744;18.206;2022-11-23T14:20:09;0.90;99.90
8684;DHT22;4379;59.744;18.206;2022-11-23T14:28:38;0.80;99.90
8684;DHT22;4379;59.744;18.206;2022-11-23T14:31:46;0.90;99.90
8684;DHT22;4379;59.744;18.206;2022-11-23T14:34:22;0.90;99.90
8684;DHT22;4379;59.744;18.206;2022-11-23T14:42:55;0.80;99.90
8684;DHT22;4379;59.744;18.206;2022-11-23T14:45:27;0.80;99.90
8684;DHT22;4379;59.744;18.206;2022-11-23T14:47:55;0.80;99.90
8684;DHT22;4379;59.744;18.206;2022-11-23T14:50:27;0.80;99.90
8684;DHT22;4379;59.744;18.206;2022-11-23T14:52:56;0.70;99.90
8684;DHT22;4379;59.744;18.206;2022-11-23T14:55:29;0.70;99.90
8684;DHT22;4379;59.744;18.206;2022-11-23T14:58:02;0.80;99.90
8684;DHT22;4379;59.744;18.206;2022-11-23T15:00:37;0.70;99.90
8684;DHT22;4379;59.744;18.206;2022-11-23T15:03:26;0.80;99.90
8684;DHT22;4379;59.744;18.206;2022-11-23T15:06:16;0.80;99.90
8684;DHT22;4379;59.744;18.206;2022-11-23T15:11:35;0.90;99.90
8684;DHT22;4379;59.744;18.206;2022-11-23T15:14:16;0.80;99.90
8684;DHT22;4379;59.744;18.206;2022-11-23T15:16:44;0.80;99.90
8684;DHT22;4379;59.744;18.206;2022-11-23T15:19:26;0.80;99.90
8684;DHT22;4379;59.744;18.206;2022-11-23T15:21:55;0.80;99.90
8684;DHT22;4379;59.744;18.206;2022-11-23T15:24:25;0.90;99.90
8684;DHT22;4379;59.744;18.206;2022-11-23T15:26:56;1.00;99.90
8684;DHT22;4379;59.744;18.206;2022-11-23T15:29:37;1.00;99.90
8684;DHT22;4379;59.744;18.206;2022-11-23T15:32:29;1.10;99.90
8684;DHT22;4379;59.744;18.206;2022-11-23T15:35:03;1.00;99.90
8684;DHT22;4379;59.744;18.206;2022-11-23T15:37:45;1.00;99.90
8684;DHT22;4379;59.744;18.206;2022-11-23T15:40:15;0.90;99.90
8684;DHT22;4379;59.744;18.206;2022-11-23T15:42:44;0.90;99.90
8684;DHT22;4379;59.744;18.206;2022-11-23T15:45:35;1.00;99.90
8684;DHT22;4379;59.744;18.206;2022-11-23T15:50:57;0.90;99.90
8684;DHT22;4379;59.744;18.206;2022-11-23T15:53:45;1.00;99.90
8684;DHT22;4379;59.744;18.206;2022-11-23T15:56:33;1.00;99.90
8684;DHT22;4379;59.744;18.206;2022-11-23T15:59:03;0.90;99.90
8684;DHT22;4379;59.744;18.206;2022-11-23T16:01:32;1.10;99.90
8684;DHT22;4379;59.744;18.206;2022-11-23T16:04:00;1.20;99.90
8684;DHT22;4379;59.744;18.206;2022-11-23T16:09:35;1.10;99.90
8684;DHT22;4379;59.744;18.206;2022-11-23T16:12:28;1.00;99.90
8684;DHT22;4379;59.744;18.206;2022-11-23T16:14:57;0.90;99.90
8684;DHT22;4379;59.744;18.206;2022-11-23T16:17:27;0.70;99.90
8684;DHT22;4379;59.744;18.206;2022-11-23T16:19:56;0.80;99.90
8684;DHT22;4379;59.744;18.206;2022-11-23T16:22:30;0.90;99.90
8684;DHT22;4379;59.744;18.206;2022-11-23T16:25:05;0.90;99.90
8684;DHT22;4379;59.744;18.206;2022-11-23T16:27:33;0.90;99.90
8684;DHT22;4379;59.744;18.206;2022-11-23T16:30:02;1.00;99.90
8684;DHT22;4379;59.744;18.206;2022-11-23T16:32:31;1.00;99.90
8684;DHT22;4379;59.744;18.206;2022-11-23T16:35:18;1.00;99.90
8684;DHT22;4379;59.744;18.206;2022-11-23T16:37:46;1.00;99.90
8684;DHT22;4379;59.744;18.206;2022-11-23T16:40:14;1.00;99.90
8684;DHT22;4379;59.744;18.206;2022-11-23T16:42:41;1.00;99.90
8684;DHT22;4379;59.744;18.206;2022-11-23T16:45:09;1.00;99.90
8684;DHT22;4379;59.744;18.206;2022-11-23T16:47:52;0.90;99.90
8684;DHT22;4379;59.744;18.206;2022-11-23T16:50:20;0.90;99.90
8684;DHT22;4379;59.744;18.206;2022-11-23T16:52:48;0.90;99.90
8684;DHT22;4379;59.744;18.206;2022-11-23T16:55:16;0.80;99.90
8684;DHT22;4379;59.744;18.206;2022-11-23T16:57:43;0.80;99.90
8684;DHT22;4379;59.744;18.206;2022-11-23T17:00:19;0.80;99.90
8684;DHT22;4379;59.744;18.206;2022-11-23T17:02:47;0.70;99.90
8684;DHT22;4379;59.744;18.206;2022-11-23T17:05:16;0.70;99.90
8684;DHT22;4379;59.744;18.206;2022-11-23T17:07:44;0.70;99.90
8684;DHT22;4379;59.744;18.206;2022-11-23T17:10:13;0.70;99.90
8684;DHT22;4379;59.744;18.206;2022-11-23T17:12:49;0.70;99.90
8684;DHT22;4379;59.744;18.206;2022-11-23T17:15:19;0.60;99.90
8684;DHT22;4379;59.744;18.206;2022-11-23T17:17:47;0.60;99.90
8684;DHT22;4379;59.744;18.206;2022-11-23T17:20:16;0.60;99.90
8684;DHT22;4379;59.744;18.206;2022-11-23T17:22:44;0.60;99.90
8684;DHT22;4379;59.744;18.206;2022-11-23T17:25:11;0.50;99.90
8684;DHT22;4379;59.744;18.206;2022-11-23T17:27:41;0.50;99.90
8684;DHT22;4379;59.744;18.206;2022-11-23T17:30:15;0.50;99.90
8684;DHT22;4379;59.744;18.206;2022-11-23T17:32:42;0.40;99.90
8684;DHT22;4379;59.744;18.206;2022-11-23T17:35:10;0.40;99.90
8684;DHT22;4379;59.744;18.206;2022-11-23T17:37:37;0.40;99.90
8684;DHT22;4379;59.744;18.206;2022-11-23T17:40:08;0.50;99.90
8684;DHT22;4379;59.744;18.206;2022-11-23T17:42:39;0.50;99.90
8684;DHT22;4379;59.744;18.206;2022-11-23T17:45:07;0.40;99.90
8684;DHT22;4379;59.744;18.206;2022-11-23T17:47:39;0.40;99.90
8684;DHT22;4379;59.744;18.206;2022-11-23T17:50:15;0.40;99.90
8684;DHT22;4379;59.744;18.206;2022-11-23T17:52:44;0.30;99.90
8684;DHT22;4379;59.744;18.206;2022-11-23T17:55:13;0.40;99.90
8684;DHT22;4379;59.744;18.206;2022-11-23T17:57:41;0.20;99.90
8684;DHT22;4379;59.744;18.206;2022-11-23T18:00:20;0.10;99.90
8684;DHT22;4379;59.744;18.206;2022-11-23T18:02:48;0.00;99.90
8684;DHT22;4379;59.744;18.206;2022-11-23T18:05:16;-0.10;99.90
8684;DHT22;4379;59.744;18.206;2022-11-23T18:07:49;-0.20;99.90
8684;DHT22;4379;59.744;18.206;2022-11-23T18:10:17;-0.20;99.90
8684;DHT22;4379;59.744;18.206;2022-11-23T18:12:45;-0.10;99.90
8684;DHT22;4379;59.744;18.206;2022-11-23T18:15:16;0.00;99.90
8684;DHT22;4379;59.744;18.206;2022-11-23T18:17:44;0.10;99.90
8684;DHT22;4379;59.744;18.206;2022-11-23T18:20:11;0.10;99.90